x

8454000 - Providence, Ri (foxr1) Weather Station

8:30 - Fri 27th Mar 2015 All times are EDT. -4 hours from GMT.

  • Wind
    1mph, 3mph gusts
  • Sea Temp 38°f
  • Ar Temp 40°f
  • Sea Pressure 1006.5mb
  • 8454000 - Providence, Ri
  • 8454000 - Providence, Ri

More Historic Weather Station data

Upgrade to MSW Pro to gain access to the past 30 days of data for over 8000 Wavebouys and Weather Stations around the globe.

Join Pro

Comparision Forecast

View Surf forecast
   
Sex 03/27 8:30 1 3 mph 1006.5mb 38f 40f
8:24 2 5 mph 1006mb 38f 40f
8:18 3 5 mph 1006mb 38f 40f
8:12 2
mph
1006.3mb 38f 41f
8:06 1 2 mph 1006.1mb 38f 41f
8:00 2 3 mph 1006mb 38f 41f
7:54  -  1 mph 1006.5mb 38f 41f
7:48  -  1 mph 1005.8mb 38f 41f
7:42  -  2 mph 1005.9mb 38f 41f
7:36  -  3 mph 1005.7mb 38f 41f
7:30 3 6 mph 1005.4mb 38f 41f
7:24 5 7 mph 1005.2mb 38f 41f
7:18 5 6 mph 1005.3mb 38f 41f
7:12 3 6 mph 1005.5mb 38f 41f
7:06 6
mph
1005mb 38f 41f
7:00 2 5 mph 1005.3mb 38f 41f
6:54 5
mph
1005.5mb 38f 41f
6:48 5
mph
1005.9mb 38f 41f
6:42 2 3 mph 1006.1mb 38f 41f
6:36 2 3 mph 1006.2mb 38f 41f
6:30 2 3 mph 1006.1mb 38f 41f
6:24 1 3 mph 1005.9mb 38f 41f
6:18 2 3 mph 1005.8mb 38f 41f
6:12 2 3 mph 1006mb 38f 42f
6:06  -  2 mph 1006mb 38f 41f
6:00  -  3 mph 1005.6mb 38f 41f
5:54 1 5 mph 1005.5mb 38f 41f
5:48 1 5 mph 1005.5mb 38f 41f
5:42 3 6 mph 1005.2mb 38f 41f
5:36 5 6 mph 1004.8mb 38f 42f
5:30 5 6 mph 1004.7mb 38f 42f
5:24 2 6 mph 1004.9mb 38f 42f
5:18 2 6 mph 1005.1mb 38f 42f
5:12 6 8 mph 1005.2mb 38f 42f
5:06 6 8 mph 1005.1mb 38f 42f
5:00 6 8 mph 1005mb 38f 42f
4:54 3 7 mph 1005.1mb 38f 42f
4:48 3 7 mph 1005.1mb 38f 42f
4:42 5 8 mph 1005.3mb 37f 42f
4:36 2 3 mph 1005.4mb 37f 41f
4:30 2 5 mph 1005.4mb 37f 41f
4:24  -  3 mph 1005.2mb 37f 41f
4:18 2 3 mph 1004.7mb 37f 41f
4:12 2 5 mph 1004.6mb 37f 41f
4:06 2 5 mph 1004.9mb 37f 41f
4:00 1 5 mph 1004.8mb 37f 41f
3:54 2 6 mph 1004.7mb 37f 41f
3:48 5 7 mph 1004.7mb 37f 41f
3:42 5 8 mph 1004.7mb 37f 41f
3:36 5 8 mph 1004.8mb 37f 41f
3:30 6 10 mph 1004.8mb 37f 41f
3:24 5 8 mph 1004.8mb 37f 41f
3:18 5 9 mph 1004.9mb 38f 41f
3:12 7 10 mph 1005mb 38f 41f
3:06 6 8 mph 1004.9mb 38f 41f
3:00 2 7 mph 1004.7mb 38f 41f
2:54  -  5 mph 1004.7mb 38f 41f
2:48 1 5 mph 1004.6mb 38f 41f
2:42 3 7 mph 1004.4mb 38f 41f
2:36 2 7 mph 1004.4mb 38f 41f
2:30 2 8 mph 1004.5mb 38f 41f
2:24 2 6 mph 1004.7mb 38f 41f
2:18 3 8 mph 1004.6mb 38f 41f
2:12 3 8 mph 1004.6mb 38f 41f
2:06 3 8 mph 1004.8mb 38f 41f
2:00 2 9 mph 1005mb 38f 41f
1:54 2 9 mph 1005mb 38f 41f
1:48 5 9 mph 1004.7mb 38f 41f
1:42 2 6 mph 1004.7mb 38f 41f
1:36 1 8 mph 1004.7mb 38f 41f
1:30 5 10 mph 1004.8mb 39f 41f
1:24 7 9 mph 1004.9mb 39f 42f
1:18 3 8 mph 1005mb 39f 41f
1:12 3 11 mph 1004.8mb 39f 42f
1:06 6 14 mph 1004.7mb 39f 42f
1:00 7 13 mph 1004.7mb 39f 42f
12:54 3 10 mph 1004.7mb 39f 42f
12:48 5 9 mph 1004.7mb 38f 42f
12:42  -  7 mph 1004.5mb 38f 42f
12:36 3 8 mph 1004.5mb 38f 42f
12:30 3 8 mph 1004.5mb 38f 42f
12:24 7 10 mph 1004.7mb 38f 42f
12:18 2 6 mph 1004.9mb 39f 42f
12:12 2 7 mph 1005mb 39f 42f
12:06 5 8 mph 1005mb 39f 41f
12:00 2 6 mph 1005.1mb 39f 41f
11:54 3 7 mph 1005.1mb 39f 41f
11:48 3 7 mph 1005.2mb 39f 41f
11:42 2 10 mph 1005.2mb 39f 41f
11:36 3 7 mph 1005.4mb 39f 41f
11:30 3 9 mph 1005.5mb 39f 41f
11:24 3 8 mph 1005.3mb 39f 41f
11:18 3 6 mph 1005.2mb 39f 41f
11:12 3 7 mph 1005.3mb 39f 41f
11:06 2 8 mph 1005.5mb 39f 41f
11:00 2 8 mph 1005.8mb 39f 41f
10:54 5 7 mph 1005.7mb 39f 41f
10:48 3 7 mph 1005.7mb 39f 41f
10:42 3 8 mph 1005.8mb 39f 41f
10:36 2 8 mph 1006mb 39f 41f
10:30 6 9 mph 1005.8mb 39f 41f
10:24 3 9 mph 1005.7mb 39f 41f
10:18 2 8 mph 1005.2mb 39f 41f
10:12 2 6 mph 1005.4mb 39f 41f
10:06 3 8 mph 1005.5mb 39f 41f
10:00 3 9 mph 1005.4mb 39f 41f
9:54 3 14 mph 1005.5mb 39f 41f
9:48 6 11 mph 1005.4mb 39f 41f
9:42 5 9 mph 1005.6mb 39f 41f
9:36 6 10 mph 1005.5mb 39f 41f
9:30 5 9 mph 1005.8mb 39f 41f
9:24 3 10 mph 1005.4mb 39f 41f
9:18 3 8 mph 1005.3mb 39f 41f
9:12 5 10 mph 1005.5mb 39f 41f
9:06 6 13 mph 1005.2mb 39f 41f
9:00 5 14 mph 1005.4mb 39f 41f
8:54 7 11 mph 1005.4mb 39f 41f
8:48 8 14 mph 1005.5mb 39f 41f
8:42 6 14 mph 1005.6mb 39f 41f
8:36 9 14 mph 1005.7mb 37f 41f
8:30 8 11 mph 1005.8mb 38f 41f
8:24 7 11 mph 1005.9mb 38f 41f
8:18 8 14 mph 1005.8mb 37f 41f
8:12 8 11 mph 1006.1mb 38f 41f
8:06 7 13 mph 1006mb 38f 41f
8:00 7 11 mph 1005.4mb 39f 41f
7:54 5 11 mph 1005.6mb 38f 41f
7:48 9 15 mph 1005.8mb 38f 41f
7:42 8 14 mph 1006mb 39f 41f
7:36 7 14 mph 1005.8mb 39f 41f
7:30 8 14 mph 1005.5mb 39f 41f
7:24 9 14 mph 1005.7mb 39f 41f
7:18 6 14 mph 1005.8mb 39f 41f
7:12 8 14 mph 1005.3mb 39f 41f
7:06 10 16 mph 1005.5mb 39f 41f
7:00 7 11 mph 1005.6mb 39f 41f
6:54 8 13 mph 1005.9mb 39f 41f
6:48 7 15 mph 1005.5mb 39f 41f
6:42 9 15 mph 1004.9mb 39f 41f
6:36 8 14 mph 1004.6mb 39f 41f
6:30 9 14 mph 1004.8mb 39f 42f
6:24 8 11 mph 1004.5mb 39f 42f
6:18 8 16 mph 1004.5mb 39f 42f
6:12 8 11 mph 1004mb 39f 42f
6:06 8 11 mph 1004mb 39f 42f
6:00 7 11 mph 1004mb 39f 42f
5:54 6 11 mph 1003.8mb 39f 42f
5:48 9 13 mph - 39f 42f
5:42 7 15 mph - 39f 42f
5:36 7 14 mph - 39f 42f
5:30 10 15 mph 1003.1mb 39f 42f
5:24 9 15 mph 1003.4mb 39f 42f
5:18 8 11 mph 1003.2mb 38f 42f
5:12 8 13 mph 1003mb 38f 42f
5:06 8 13 mph 1003mb 38f 42f
5:00 9 16 mph 1003.1mb - -
4:54 8 14 mph 1003.1mb - -
4:48 9 14 mph 1003.4mb 39f 43f
4:42 8 11 mph 1003.1mb 39f 43f
4:36 7 10 mph 1003.2mb 39f 43f
4:30 6 9 mph 1003.1mb 39f 43f
4:24 7 10 mph 1003.3mb 39f 43f
4:18 7 10 mph 1003.5mb 39f 43f
4:12 8 10 mph 1003.8mb 39f 44f
4:06 8 11 mph 1003.9mb 39f 44f
4:00 8 13 mph 1003.5mb 39f 44f
3:54 7 11 mph 1003.1mb 39f 44f
3:48 8 11 mph 1002.9mb 39f 44f
3:42 5 10 mph 1002.9mb 39f 44f
3:36 7 10 mph 1002.6mb 39f 44f
3:30 7 10 mph 1002.6mb 39f 44f
3:24 6 9 mph 1002.5mb 39f 44f
3:18 6 10 mph 1002.4mb 39f 44f
3:12 6 9 mph 1002.5mb 39f 44f
3:06 5 10 mph 1002.4mb 39f 44f
3:00 8 13 mph 1002.5mb - 44f
2:54 9 15 mph 1002.7mb - 44f
2:48 10 14 mph 1002.9mb 39f 44f
2:42 7 11 mph 1003.1mb 39f 44f
2:36 6 10 mph 1002.9mb 39f 44f
2:30 2 7 mph 1002.6mb 39f 44f
2:24 2 7 mph 1002.6mb 39f 44f
2:18 2 9 mph 1002.6mb 39f 44f
2:12 2 8 mph 1002.4mb 39f 44f
2:06 3 10 mph 1002.5mb 39f 44f
2:00 2 7 mph 1002.5mb 39f 45f
1:54 3 8 mph 1002.6mb 39f 45f
1:48 1 8 mph 1002.4mb 39f 45f
1:42 3 8 mph 1002.8mb 39f 45f
1:36 6 9 mph 1003.1mb 39f 45f
1:30 6 10 mph 1003.1mb 39f 45f
1:24 5 7 mph 1002.9mb 39f 45f
1:18 1 5 mph 1002.6mb 39f 45f
1:12 1 6 mph 1002.5mb 39f 45f
1:06 2 6 mph 1002.4mb 39f 45f
1:00 2 7 mph 1002.3mb 39f 45f
12:54 3 8 mph 1002.4mb 39f 45f
12:48 5 8 mph 1002.8mb 39f 45f
12:42 2 9 mph 1002.9mb 39f 45f
12:36 3 7 mph 1002.9mb 39f 45f
12:30 2 8 mph 1002.8mb 39f 46f
12:24 2 5 mph 1002.7mb 39f 46f
12:18 3 9 mph 1002.6mb 39f 46f
12:12 7 11 mph 1002.7mb 39f 46f
12:06 10 14 mph 1002.8mb 39f 46f
12:00 8 11 mph 1002.8mb 39f 46f
Qui 03/26 11:54 10 14 mph 1002.7mb 39f 46f
11:48 7 16 mph 1002.8mb 39f 46f
11:42 7 16 mph 1002.7mb 38f 46f
11:36 7 16 mph 1002.7mb 38f 46f
11:30 8 18 mph 1003mb 38f 47f
11:24 9 14 mph 1003.1mb 38f 47f
11:18 8 17 mph 1002.8mb 38f 47f
11:12 7 14 mph 1002.7mb 38f 47f
11:06 9 14 mph 1002.7mb 38f 47f
11:00 8 11 mph 1002.6mb 38f 48f
10:54 7 13 mph 1002.9mb 38f 48f
10:48 8 16 mph 1002.8mb 38f 48f
10:42 7 14 mph 1002.6mb 38f 49f
10:36 9 20 mph 1002.7mb 38f 49f
10:30 14 20 mph 1002.6mb 38f 51f
10:24 9 15 mph 1002.3mb 38f 58f
10:18 8 13 mph 1002.6mb 38f 58f
10:12 7 13 mph 1002.6mb 38f 58f
10:06 9 16 mph 1002.7mb 39f 58f
10:00 10 17 mph 1002.6mb 39f 58f
9:54 9 14 mph 1002.6mb 39f 58f
9:48 6 10 mph 1002.7mb 39f 57f
9:42 8 13 mph 1002.5mb 39f 57f
9:36 7 11 mph 1002.5mb 39f 57f
9:30 10 14 mph 1002.4mb 39f 57f
9:24 9 13 mph 1002.3mb 39f 57f
9:18 5 13 mph 1002.4mb 39f 57f
9:12 8 13 mph 1002.3mb 39f 57f
9:06 8 10 mph 1002.2mb 39f 57f
9:00 8 16 mph 1002.2mb 39f 57f
8:54 8 11 mph 1002.3mb 39f 57f
8:48 8 11 mph 1002.3mb 39f 57f
8:42 13 23 mph 1002.5mb 39f 57f
8:36 9 15 mph 1002.7mb 39f 57f
8:30 9 17 mph 1002.6mb 39f 57f
8:24 9 16 mph 1002.6mb 39f 57f
8:18 10 21 mph 1002.5mb 39f 57f
8:12 11 18 mph 1002.6mb 39f 57f
8:06 11 22 mph 1002.8mb 39f 57f
8:00 11 25 mph 1002.9mb 39f 58f
7:54 14 25 mph 1002.6mb 39f 58f
7:48 15 24 mph 1002.6mb 39f 59f
7:42 21 30 mph 1002.6mb 39f 59f
7:36 15 26 mph 1002.7mb 39f 59f
7:30 13 23 mph 1002.5mb 39f 58f
7:24 13 24 mph 1002.5mb 39f 58f
7:18 15 23 mph 1002.6mb 39f 58f
7:12 14 23 mph 1002.9mb 39f 58f
7:06 11 22 mph 1002.8mb 39f 57f
7:00 10 17 mph 1002.9mb 39f 57f
6:54 11 20 mph 1003.1mb 39f 57f
6:48 9 15 mph 1003.1mb 39f 56f
6:42 10 16 mph 1003.1mb 40f 56f
6:36 11 22 mph 1003.2mb 40f 56f
6:30 13 20 mph 1003.4mb 40f 56f
6:24 15 22 mph 1003.4mb 40f 56f
6:18 16 23 mph 1003.4mb 40f 56f
6:12 14 24 mph 1003.5mb 40f 56f
6:06 16 26 mph 1003.4mb 39f 56f
6:00 16 28 mph 1003.5mb 40f 56f
5:54 15 28 mph 1003.6mb 39f 57f
5:48 15 22 mph 1003.5mb 39f 57f
5:42 11 26 mph 1003.5mb 39f 57f
5:36 16 25 mph 1003.7mb 39f 57f
5:30 9 16 mph 1003.6mb 39f 56f
5:24 8 20 mph 1003.6mb 39f 55f
5:18 9 15 mph 1003.6mb 39f 47f
5:12 11 16 mph 1003.8mb 39f 47f
5:06 11 14 mph 1003.9mb 39f 47f
5:00 11 18 mph 1003.9mb 39f 46f
4:54 16 18 mph 1003.9mb 39f 46f
4:48 13 16 mph 1004.2mb 39f 46f
4:42 11 16 mph 1004.4mb 39f 45f
4:36 11 16 mph 1004.4mb 39f 46f
4:30 11 15 mph 1004.5mb 39f 47f
4:24 14 17 mph 1004.4mb 39f 46f
4:18 14 17 mph 1004.9mb 39f 45f
4:12 14 16 mph 1004.7mb 39f 46f
4:06 11 15 mph 1005mb 38f 46f
4:00 14 16 mph 1005.2mb 38f 45f
3:54 14 17 mph 1005.4mb 38f 45f
3:48 13 15 mph 1005.6mb 38f 45f
3:42 10 14 mph 1005.7mb 38f 45f
3:36 11 14 mph 1005.7mb 38f 44f
3:30 11 13 mph 1005.9mb 38f 45f
3:24 13 14 mph 1006.1mb 38f 45f
3:18 13 15 mph 1006.3mb 38f 45f
3:12 13 14 mph 1006.4mb 38f 45f
3:06 10 13 mph 1006.6mb 38f 46f
3:00 10 11 mph 1006.8mb 38f 46f
2:54 7 11 mph 1007mb 38f 50f
2:48 8 14 mph 1007.2mb 38f 51f
2:42 8 20 mph 1007.2mb 38f 50f
2:36 5 13 mph 1007.1mb 38f 49f
2:30 10 13 mph 1007.7mb 38f 49f
2:24 9 14 mph 1007.8mb 38f 48f
2:18 8 11 mph 1007.9mb 38f 46f
2:12 10 11 mph 1007.8mb 38f 46f
2:06 9 10 mph 1007.8mb 38f 47f
2:00 9 13 mph 1008mb 38f 49f
1:54 10 13 mph 1008.1mb 38f 50f
1:48 8 10 mph 1008.3mb 38f 50f
1:42 10 13 mph 1008.4mb 38f 49f
1:36 10 13 mph 1008.7mb 38f 49f
1:30 8 10 mph 1008.9mb 38f 50f
1:24 9 13 mph 1009.2mb 38f 50f
1:18 7 13 mph 1009.3mb 38f 49f
1:12 8 11 mph 1009.3mb 38f 50f
1:06 7 11 mph 1009.5mb 38f 49f
1:00 7 9 mph 1009.6mb 38f 49f
12:54 8 14 mph 1009.7mb 38f 48f
12:48 9 11 mph 1009.8mb 38f 47f
12:42 11 13 mph 1010mb 38f 46f
12:36 11 14 mph 1010.1mb 38f 47f
12:30 11 17 mph 1010.4mb 38f 51f
12:24 8 14 mph 1010.4mb 38f 50f
12:18 8 9 mph 1010.7mb 38f 46f
12:12 8 13 mph 1010.9mb 38f 46f
12:06 11 17 mph 1011.1mb 38f 46f
12:00 15 17 mph 1011.3mb 38f 46f
11:54 10 11 mph 1011.3mb 38f 47f
11:48 9 10 mph 1011.4mb 38f 46f
11:42 9 11 mph 1011.5mb 38f 46f
11:36 10 11 mph 1011.7mb 38f 46f
11:30 8 14 mph 1011.9mb 38f 47f
11:24 11 16 mph 1012.3mb 38f 47f
11:18 13 16 mph 1012.1mb 38f 47f
11:12 13 14 mph 1012.4mb 37f 48f
11:06 13 14 mph 1012.4mb 37f 48f
11:00 10 13 mph 1012.5mb 37f 48f
10:54 9 10 mph 1012.5mb 37f 49f
10:48 8 10 mph 1012.8mb 37f 53f
10:42 7 9 mph 1012.9mb 37f 53f
10:36 5 9 mph 1012.5mb 37f 53f
10:30 5 10 mph 1012.8mb 37f 52f
10:24 9 15 mph 1012.9mb 37f 52f
10:18 11 17 mph 1013mb 37f 52f
10:12 13 18 mph 1013.2mb 37f 52f
10:06 11 16 mph 1013.2mb 37f 52f
10:00 13 16 mph 1013.4mb 37f 52f
9:54 8 16 mph 1013.4mb 37f 51f
9:48 8 16 mph 1013.5mb 37f 51f
9:42 11 16 mph 1013.6mb 37f 50f
9:36 9 13 mph 1013.6mb 37f 49f
9:30 7 15 mph 1013.8mb 37f 49f
9:24 10 20 mph 1013.9mb 37f 49f
9:18 9 15 mph 1013.9mb 37f 48f
9:12 9 16 mph 1013.9mb 37f 48f
9:06 9 14 mph 1013.9mb 37f 47f
9:00 13 18 mph 1013.8mb 37f 46f
8:54 8 10 mph 1013.8mb 37f 46f
8:48 6 14 mph 1013.8mb 38f 46f
8:42 9 14 mph 1013.8mb 37f 46f
8:36 8 11 mph 1013.9mb 37f 46f
8:30 9 11 mph 1014mb 37f 45f
8:24 3 5 mph 1014mb 38f 44f
8:18 3 7 mph 1014.1mb 37f 44f
8:12 3 5 mph 1014.1mb 38f 44f
8:06 5
mph
1014.1mb 38f 44f
8:00 5 6 mph 1014.2mb 38f 44f
7:54 3 5 mph 1014.3mb 38f 44f
7:48 6 9 mph 1014.5mb 38f 44f
7:42 6 8 mph 1014.6mb 38f 44f
7:36 5 8 mph 1014.6mb 38f 44f
7:30 6 8 mph 1014.6mb 38f 44f
7:24 3 6 mph 1014.6mb 38f 44f
7:18 5 8 mph 1014.7mb 38f 44f
7:12 7 10 mph 1014.6mb 38f 44f
7:06 7 9 mph 1014.7mb 38f 44f
7:00 6 8 mph 1014.7mb 38f 44f
6:54 6 7 mph 1014.7mb 38f 44f
6:48 3 7 mph 1014.7mb 38f 44f
6:42 3 5 mph 1014.9mb 38f 44f
6:36 3 6 mph 1014.9mb 38f 44f
6:30 5 6 mph 1014.9mb 38f 44f
6:24 3 6 mph 1015mb 38f 44f
6:18 5 6 mph 1015mb 38f 44f
6:12 5 7 mph 1015.1mb 38f 44f
6:06 5 8 mph 1015.1mb 38f 44f
6:00  -  mph 1015.2mb 37f 43f
5:54  -  mph 1015.1mb 37f 43f
5:48 6
mph
1015mb 37f -
5:42 5 7 mph 1015mb 37f -
5:36 6
mph
1015mb 37f -
5:30 5 7 mph 1015mb 37f 42f
5:24 6 8 mph 1015.1mb 37f 42f
5:18 6 7 mph 1015.1mb 37f 42f
5:12 6 8 mph 1015.2mb 37f 42f
5:06 7 8 mph 1015.2mb 37f 43f
5:00 6 8 mph 1015.3mb 37f 43f
4:54 5 8 mph 1015.4mb 37f 44f
4:48 5 6 mph 1015.5mb 37f 44f
4:42 3 6 mph 1015.6mb 37f 44f
4:36 3 8 mph 1015.5mb 37f 43f
4:30 7 9 mph 1015.5mb 37f 43f
4:24 7 9 mph 1015.4mb 37f 43f
4:18 6 8 mph 1015.6mb 37f 42f
4:12 6 8 mph 1015.8mb 37f 42f
4:06 6 8 mph 1016mb 37f 42f
4:00 7 8 mph 1016mb 37f 41f
3:54 7 9 mph 1016.2mb 37f 41f
3:48 7 8 mph 1016.3mb 37f 41f
3:42 6 8 mph 1016.3mb 37f 40f
3:36 7 9 mph 1016.5mb 37f 41f
3:30 8 9 mph 1016.6mb 37f 40f
3:24 8 9 mph 1016.6mb 37f 40f
3:18 8
mph
1016.9mb 37f 40f
3:12 7 8 mph 1017.1mb 37f 40f
3:06 5 6 mph 1017.2mb 37f 40f
3:00 6 8 mph 1017.3mb 37f 41f
2:54 7 8 mph 1017.4mb 37f 41f
2:48 6
mph
1017.5mb 37f -
2:42 3 6 mph 1017.6mb 37f -
2:36 5 9 mph 1017.8mb 37f -
2:30 9 11 mph 1017.9mb 37f 40f
2:24 8 9 mph 1018mb 37f 40f
2:18 5 7 mph 1018.1mb 37f 40f
2:12 7 9 mph 1018.2mb 37f 40f
2:06 8 10 mph 1018.3mb 37f 40f
2:00 8
mph
1018.5mb 37f 40f
1:54 5 6 mph 1018.7mb 37f 40f
1:48 6 7 mph 1018.8mb 37f 41f
1:42 6 9 mph 1019mb 37f 41f
1:36 8 11 mph 1019.1mb 37f 42f
1:30 7 14 mph 1019.3mb 37f 42f
1:24 9 10 mph 1019.4mb 37f 42f
1:18 7 11 mph 1019.5mb 37f 42f
1:12 8 11 mph 1019.7mb 37f 42f
1:06 9 11 mph 1019.8mb 37f 41f
1:00 8 11 mph 1019.9mb 37f 41f
12:54 6 11 mph 1020mb 37f 41f
12:48 7 11 mph 1020mb 37f 41f
12:42 9 11 mph 1020.1mb 37f 41f
12:36 10 13 mph 1020.2mb 37f 41f
12:30 9 13 mph 1020.3mb 37f 40f
12:24 7 9 mph 1020.5mb 37f 40f
12:18 6 8 mph 1020.5mb 37f 40f
12:12 6 8 mph 1020.6mb 37f 40f
12:06 6 8 mph 1020.7mb 37f 40f
12:00 6 8 mph 1020.9mb 37f 39f
Qua 03/25 11:54 5 9 mph 1021mb 37f 39f
11:48 6 8 mph 1021.1mb 37f 39f
11:42 5 8 mph 1021.3mb 37f 39f
11:36 7 9 mph 1021.3mb 37f 39f
11:30 7 9 mph 1021.5mb 37f 39f
11:24 5 7 mph 1021.6mb 37f 39f
11:18 5 10 mph 1021.7mb 37f 39f
11:12 7 13 mph 1021.9mb 37f 38f
11:06 8 10 mph 1022mb 37f 38f
11:00 7 10 mph 1022mb 37f 38f
10:54 8 11 mph 1022.1mb 37f 38f
10:48 9 13 mph 1022mb 37f 38f
10:42 9 13 mph 1022.1mb 37f 38f
10:36 7 10 mph 1022.2mb 37f 38f
10:30 5 7 mph 1022.4mb 37f 37f
10:24 7 13 mph 1022.5mb 37f 37f
10:18 9 11 mph 1022.5mb 37f 37f
10:12 8 10 mph 1022.8mb 37f 37f
10:06 9 14 mph 1022.8mb 37f 37f
10:00 9 10 mph 1023.1mb 37f 37f
9:54 7 9 mph 1023.3mb 37f 37f
9:48 5 7 mph 1023.6mb 37f 37f
9:42 6 8 mph 1023.8mb 37f 37f
9:36 6 9 mph 1023.9mb 37f 37f
9:30 6 8 mph 1023.8mb 37f 37f
9:24 5 9 mph 1023.8mb 37f 37f
9:18 8 11 mph 1023.8mb 37f 37f
9:12 7 11 mph 1023.9mb 37f 37f
9:06 8 13 mph 1023.8mb 37f 37f
9:00 9 13 mph 1023.8mb 37f 37f
8:54 8 9 mph 1024mb 37f 38f
8:48 7 9 mph 1024.3mb 37f 38f
8:42 8 10 mph 1024.2mb 37f 38f
8:36 6 10 mph 1024.2mb 37f 38f
8:30 6 10 mph 1024.4mb 37f 38f
8:24 9 11 mph 1024.5mb 37f 38f
8:18 7 11 mph 1024.6mb 37f 38f
8:12 7 13 mph 1024.5mb 37f 38f
8:06 8 11 mph 1024.8mb 37f 38f
8:00 8 11 mph 1024.9mb 37f 38f
7:54 8 13 mph 1025.1mb 37f 38f
7:48 9 13 mph 1025mb 37f 38f
7:42 9 13 mph 1025mb 37f 39f
7:36 9 14 mph 1024.9mb 37f 39f
7:30 9 15 mph 1024.6mb 37f 39f
7:24 11 16 mph 1024.5mb 37f 39f
7:18 10 15 mph 1024.5mb 37f 40f
7:12 13 17 mph 1024.7mb 37f 40f
7:06 9 15 mph 1024.7mb 37f 40f
7:00 11 18 mph 1024.9mb 37f 40f
6:54 9 15 mph 1024.9mb 37f 41f
6:48 10 18 mph 1025.1mb 38f 41f
6:42 6 13 mph 1025.1mb 38f 41f
6:36 11 18 mph 1025.2mb 38f 41f
6:30 7 11 mph 1025.2mb 38f 41f
6:24 10 21 mph 1025.3mb 38f 41f
6:18 14 21 mph 1025.4mb 38f 41f
6:12 13 17 mph 1025.3mb 38f 41f
6:06 11 18 mph 1025.4mb 38f 41f
6:00 9 20 mph 1025.5mb 38f 42f
5:54 14 23 mph 1025.5mb 38f 42f
5:48 11 20 mph 1025.6mb 38f 42f
5:42 14 21 mph 1025.6mb 38f 42f
5:36 9 17 mph 1025.6mb 38f 43f
5:30 11 16 mph 1025.7mb 38f 43f
5:24 11 18 mph 1025.6mb 38f 42f
5:18 15 21 mph 1025.5mb 38f 42f
5:12 14 22 mph 1025.4mb 38f 43f
5:06 16 22 mph 1025.5mb 37f 42f
5:00 14 20 mph 1025.5mb 37f 43f
4:54 16 21 mph 1025.4mb 37f 41f
4:48 18 21 mph 1025.3mb 37f 41f
4:42 16 21 mph 1025.3mb 37f 42f
4:36 13 20 mph 1025.4mb 37f 43f
4:30 15 22 mph 1025.5mb 37f 43f
4:24 20 25 mph 1025.7mb 37f 43f
4:18 15 20 mph 1025.6mb 37f 44f
4:12 15 20 mph 1025.6mb 37f 44f
4:06 16 20 mph 1025.7mb 36f 43f
4:00 17 21 mph 1025.8mb 36f 43f
3:54 16 25 mph 1025.9mb 36f 44f
3:48 16 21 mph 1025.9mb 36f 44f
3:42 16 22 mph 1026mb 36f 44f
3:36 16 24 mph 1026.1mb 36f 44f
3:30 18 24 mph 1026.2mb 36f 45f
3:24 15 20 mph 1026.4mb 37f 45f
3:18 18 22 mph 1026.3mb 36f 43f
3:12 18 24 mph 1026.3mb 36f 42f
3:06 18 24 mph 1026.3mb 36f 43f
3:00 18 24 mph 1026.4mb 36f 43f
2:54 17 23 mph 1026.5mb 36f 43f
2:48 16 24 mph 1026.4mb 36f 43f
2:42 21 24 mph 1026.5mb 36f 43f
2:36 18 24 mph 1026.5mb 36f 43f
2:30 17 24 mph 1026.6mb 36f 43f
2:24 20 23 mph 1026.7mb 36f 43f
2:18 16 21 mph 1026.8mb 36f 43f
2:12 20 23 mph 1026.9mb 36f 43f
2:06 15 20 mph 1026.9mb 36f 43f
2:00 18 22 mph 1027mb 36f 42f
1:54 16 21 mph 1027.2mb 36f 42f
1:48 17 21 mph 1027.3mb 36f 42f
1:42 16 21 mph 1027.4mb 36f 42f
1:36 16 21 mph 1027.4mb 36f 42f
1:30 14 20 mph 1027.6mb 36f 42f
1:24 16 20 mph 1027.8mb 36f 42f
1:18 14 16 mph 1027.9mb 36f 42f
1:12 13 17 mph 1028mb 36f 42f
1:06 11 17 mph 1028mb 36f 42f
1:00 13 15 mph 1028.2mb 36f 42f
12:54 13 16 mph 1028.2mb 36f 42f
12:48 11 17 mph 1028.3mb 36f 42f
12:42 14 17 mph 1028.4mb 36f 41f
12:36 15 16 mph 1028.4mb 36f 42f
12:30 14 16 mph 1028.5mb 36f 41f
12:24 10 15 mph 1028.5mb 36f 42f
12:18 13 14 mph 1028.5mb 36f 41f
12:12 11 13 mph 1028.5mb 36f 41f
12:06 10 11 mph 1028.6mb 36f 41f
12:00 8 11 mph 1028.6mb 36f 40f
11:54 9 13 mph 1028.8mb 36f 40f
11:48 8 14 mph 1028.9mb 36f 40f
11:42 13 15 mph 1029mb 36f 39f
11:36 11 14 mph 1029.1mb 36f 40f
11:30 9 11 mph 1029.1mb 36f 39f
11:24 10 13 mph 1029.2mb 36f 39f
11:18 9 10 mph 1029.2mb 36f 39f
11:12 8 9 mph 1029.3mb 36f 38f
11:06 8 9 mph 1029.3mb 36f 39f
11:00 8 10 mph 1029.3mb 36f 39f
10:54 8 9 mph 1029.3mb 36f 39f
10:48 7 9 mph 1029.3mb 36f 39f
10:42 7 8 mph 1029.4mb 35f 39f
10:36 5 6 mph 1029.4mb 35f 38f
10:30 3 5 mph 1029.4mb 35f 37f
10:24 2 3 mph 1029.4mb 35f 37f
10:18 2
mph
1029.3mb 35f 37f
10:12 2 5 mph 1029.3mb 35f 36f
10:06 3 5 mph 1029.2mb 35f 36f
10:00 5
mph
1029.2mb 35f 36f
9:54 5
mph
1029.2mb 35f 35f
9:48 5
mph
1029.2mb 35f 35f
9:42 3 5 mph 1029.2mb 35f 34f
9:36 5
mph
1029.1mb 35f 34f
9:30 3 5 mph 1029mb 35f 33f
9:24 5
mph
1029mb 35f 33f
9:18 5
mph
1029mb 35f 33f
9:12 3 6 mph 1029mb 35f 32f
9:06 5 6 mph 1028.9mb 35f 33f
9:00 3 5 mph 1029mb 35f 33f
8:54 3 5 mph 1029mb 35f 33f
8:48 3 5 mph 1029mb 35f 33f
8:42 3 5 mph 1028.9mb 35f 32f
8:36 3 5 mph 1028.7mb 35f 32f
8:30 2 3 mph 1028.7mb 35f 32f
8:24 2 5 mph 1028.7mb 35f 31f
8:18 3
mph
1028.7mb 35f 31f
8:12 2 3 mph 1028.6mb 35f 31f
8:06 1 2 mph 1028.7mb 35f 31f
8:00 1 2 mph 1028.7mb 35f 31f
7:54 2 3 mph 1028.7mb 35f 30f
7:48 2 3 mph 1028.7mb 35f 30f
7:42 2 3 mph 1028.9mb 35f 30f
7:36 2
mph
1028.9mb 35f 30f
7:30  -  2 mph 1029mb 35f 30f
7:24 2
mph
1029mb 35f 31f
7:18  -  1 mph 1029.1mb 35f 31f
7:12  -  1 mph 1029mb 35f 31f
7:06 1 2 mph 1029mb 35f 31f
7:00 3 6 mph 1029mb 35f 30f
6:54 3 5 mph 1029.1mb 35f 30f
6:48 3 5 mph 1029mb 35f 29f
6:42 2 5 mph 1028.9mb 35f 29f
6:36 3 6 mph 1028.9mb 35f 29f
6:30 3 5 mph 1028.9mb 35f 29f
6:24 3
mph
1029mb 35f 29f
6:18 2 3 mph 1028.9mb 35f 29f
6:12 1 2 mph 1028.9mb 35f 28f
6:06 1 2 mph 1028.8mb 35f 28f
6:00  -  mph 1028.7mb 35f 28f
5:54  -  1 mph 1028.7mb 35f 28f
5:48  -  1 mph 1028.7mb 35f -
5:42  -  mph 1028.6mb 35f -
5:36  -  2 mph 1028.5mb 35f -
5:30  -  1 mph 1028.4mb 35f 28f
5:24  -  2 mph 1028.3mb 35f 28f
5:18  -  2 mph 1028.3mb 36f 28f
5:12  -  3 mph 1028.1mb 36f 28f
5:06 1 3 mph 1028mb 36f 29f
5:00  -  3 mph 1028mb 36f 29f
4:54 1 2 mph 1027.9mb 36f 29f
4:48  -  2 mph 1027.8mb 36f 29f
4:42  -  3 mph 1027.8mb 36f 30f
4:36 2 6 mph 1027.8mb 36f 29f
4:30 3 6 mph 1027.7mb 36f 29f
4:24 3 6 mph 1027.7mb 36f 29f
4:18 2 6 mph 1027.7mb 36f 29f
4:12 5 6 mph 1027.6mb 36f 29f
4:06 5 7 mph 1027.7mb 36f 29f
4:00 3 6 mph 1027.7mb 36f 28f
3:54  -  2 mph 1027.7mb 36f 28f
3:48  -  2 mph 1027.7mb 36f 28f
3:42  -  1 mph 1027.7mb 36f 28f
3:36  -  1 mph 1027.7mb 36f 28f
3:30 1
mph
1027.8mb 36f 28f
3:24  -  1 mph 1027.8mb 36f 28f
3:18  -  1 mph 1027.8mb 36f 27f
3:12  -  1 mph 1027.8mb 36f 27f
3:06  -  1 mph 1027.9mb 36f 27f
3:00  -  mph 1027.8mb 36f 27f
2:54  -  1 mph 1027.9mb 36f 27f
2:48  -  1 mph 1027.9mb 36f 27f
2:42  -  2 mph 1027.9mb 36f 28f
2:36 2
mph
1027.8mb 36f 28f
2:30 1 2 mph 1027.8mb 36f 27f
2:24 2
mph
1027.9mb 36f 27f
2:18 2 3 mph 1027.8mb 36f 27f
2:12 2 3 mph 1027.8mb 36f 28f
2:06 3
mph
1027.8mb 36f 28f
2:00 2 3 mph 1027.8mb 36f 28f
1:54 3
mph
1027.8mb 36f 28f
1:48 3
mph
1027.8mb 36f 28f
1:42 2 3 mph 1027.7mb 36f 28f
1:36 3
mph
1027.7mb 36f 28f
1:30 2
mph
1027.7mb 36f 28f
1:24 2 3 mph 1027.7mb 36f 28f
1:18 3
mph
1027.7mb 36f 28f
1:12 2
mph
1027.7mb 36f 28f
1:06 2
mph
1027.8mb 36f 28f
1:00 2 3 mph 1027.8mb 36f 28f
12:54 3
mph
1027.8mb 36f 28f
12:48 2 3 mph 1027.8mb 36f 28f
12:42 2 3 mph 1027.9mb 36f 29f
12:36 2 3 mph 1027.9mb 36f 29f
12:30 3
mph
1027.8mb 36f 29f
12:24 2 3 mph 1027.8mb 36f 29f
12:18 3 5 mph 1027.8mb 36f 29f
12:12 3 5 mph 1027.8mb 36f 29f
12:06 3
mph
1027.7mb 36f 29f
12:00 3
mph
1027.6mb 36f 29f
Ter 03/24 11:54 3
mph
1027.6mb 36f 29f
11:48 3
mph
1027.6mb 36f 29f
11:42 2 3 mph 1027.6mb 36f 29f
11:36 3 5 mph 1027.6mb 36f 29f
11:30 2 6 mph 1027.5mb 36f 29f
11:24 3 6 mph 1027.4mb 36f 30f
11:18 5 6 mph 1027.4mb 36f 30f
11:12 5 6 mph 1027.4mb 36f 30f
11:06 5 6 mph 1027.3mb 36f 30f
11:00 5 7 mph 1027.2mb 36f 30f
10:54 5
mph
1027.1mb 36f 30f
10:48 2 3 mph 1027.1mb 36f 30f
10:42 2 5 mph 1027.1mb 36f 30f
10:36 3 6 mph 1027.1mb 36f 31f
10:30 5 6 mph 1027.1mb 36f 31f
10:24 3 5 mph 1027.2mb 36f 31f
10:18 2 6 mph 1027.1mb 36f 31f
10:12 3 6 mph 1027.1mb 36f 31f
10:06 3 6 mph 1027mb 36f 31f
10:00 3 6 mph 1027mb 36f 31f
9:54 3 7 mph 1027mb 36f 32f
9:48 5 7 mph 1027mb 36f 32f
9:42 3 6 mph 1027mb 36f 32f
9:36 5 7 mph 1027mb 35f 32f
9:30 6 7 mph 1027mb 35f 32f
9:24 5 6 mph 1027mb 35f 32f
9:18 3 6 mph 1026.9mb 35f 33f
9:12 5 6 mph 1026.9mb 35f 33f
9:06 5 6 mph 1026.9mb 35f 33f
9:00 2 6 mph 1026.9mb 35f 33f
8:54 6 7 mph 1026.8mb 35f 33f
8:48 5 6 mph 1026.7mb 35f 34f
8:42 5 7 mph 1026.8mb 35f 34f
8:36 6 7 mph 1026.7mb 35f 34f
8:30 6
mph
1026.6mb 35f 34f
8:24 5 7 mph 1026.6mb 35f 34f
8:18 5 6 mph 1026.5mb 35f 34f
8:12 5 7 mph 1026.4mb 35f 34f
8:06 6 7 mph 1026.3mb 35f 35f
8:00 5 6 mph 1026.3mb 35f 35f
7:54 6 7 mph 1026.2mb 35f 35f
7:48 5 8 mph 1026.2mb 35f 35f
7:42 6 9 mph 1026.1mb 35f 35f
7:36 6 10 mph 1026.1mb 35f 34f
7:30 7 9 mph 1026mb 35f 35f
7:24 8 10 mph 1025.9mb 35f 35f
7:18 9 11 mph 1025.9mb 35f 35f
7:12 9 11 mph 1025.8mb 35f 35f
7:06 10 13 mph 1025.6mb 35f 35f
7:00 9 11 mph 1025.6mb 35f 36f
6:54 8 11 mph 1025.6mb 35f 36f
6:48 10 11 mph 1025.5mb 35f 36f
6:42 10 11 mph 1025.4mb 35f 36f
6:36 8 11 mph 1025.4mb 35f 37f
6:30 10 13 mph 1025.3mb 35f 37f
6:24 10 11 mph 1025.2mb 35f 37f
6:18 7 9 mph 1025.1mb 35f 37f
6:12 2 3 mph 1025.1mb 35f 39f
6:06 2 5 mph 1025.1mb 35f 39f
6:00 3 5 mph 1025mb 35f 39f
5:54 2 5 mph 1025mb 35f 39f
5:48  -  5 mph 1024.9mb 35f 39f
5:42 1 5 mph 1024.9mb 35f 40f
5:36  -  3 mph 1024.9mb 35f 40f
5:30 5 10 mph 1024.9mb 35f 40f
5:24 5 7 mph 1024.8mb 35f 41f
5:18 2 8 mph 1024.8mb 35f 40f
5:12 2 3 mph 1024.7mb 35f 40f
5:06 2 8 mph 1024.7mb 35f 40f
5:00 2 5 mph 1024.6mb 35f 39f
4:54 2 6 mph 1024.6mb 35f 39f
4:48 3 6 mph 1024.6mb 35f 39f
4:42 5 8 mph 1024.6mb 35f 39f
4:36 1 5 mph 1024.6mb 35f 38f
4:30 3 6 mph 1024.5mb 35f 39f
4:24 2 3 mph 1024.5mb 35f 40f
4:18 1 5 mph 1024.5mb 35f 38f
4:12 2 6 mph 1024.5mb 35f 39f
4:06  -  1 mph 1024.5mb 35f 39f
4:00  -  2 mph 1024.5mb 35f 40f
3:54 2 3 mph 1024.6mb 35f 39f
3:48 1 7 mph 1024.6mb 35f 38f
3:42 2 6 mph 1024.6mb 35f 39f
3:36 6 9 mph 1024.6mb 34f 38f
3:30 2 6 mph 1024.6mb 34f 38f
3:24 1 5 mph 1024.6mb 34f 38f
3:18 1 6 mph 1024.6mb 34f 38f
3:12 1 6 mph 1024.5mb 34f 37f
3:06 2 6 mph 1024.5mb 34f 37f
3:00 2 3 mph 1024.6mb 34f 37f
2:54 2 5 mph 1024.6mb 34f 36f
2:48 3 6 mph 1024.6mb 34f 36f
2:42 3 6 mph 1024.7mb 34f 36f
2:36 2 6 mph 1024.7mb 34f 38f
2:30 3 6 mph 1024.7mb 34f 36f
2:24 3 8 mph 1024.7mb 34f 36f
2:18 3 8 mph 1024.7mb 35f 36f
2:12 1 5 mph 1024.7mb 35f 36f
2:06 2 7 mph 1024.7mb 35f 35f
2:00 3 7 mph 1024.7mb 35f 35f
1:54 2 7 mph 1024.8mb 35f 35f
1:48 2 5 mph 1024.9mb 35f 35f
1:42 2 8 mph 1024.9mb 35f 35f
1:36 3 6 mph 1025mb 35f 35f
1:30 2 6 mph 1025.1mb 35f 34f
1:24 2 3 mph 1025.4mb 35f 34f
1:18 2 5 mph 1025.4mb 35f 34f
1:12 3 5 mph 1025.5mb 35f 33f
1:06 5 6 mph 1025.6mb 35f 33f
1:00 3 6 mph 1025.7mb 35f 33f
12:54 5 7 mph 1025.8mb 35f 33f
12:48 2 5 mph 1025.8mb 35f 33f
12:42 3 6 mph 1025.8mb 35f 32f
12:36 3 6 mph 1025.8mb 35f 33f
12:30 2 5 mph 1025.8mb 35f 33f
12:24 2 6 mph 1025.8mb 35f 33f
12:18 3 6 mph 1025.9mb 35f 32f
12:12 1 5 mph 1025.9mb 35f 32f
12:06 5 7 mph 1026mb 36f 31f
12:00 3 7 mph 1026mb 36f 31f
11:54 3 6 mph 1026mb 36f 31f
11:48 3 6 mph 1026mb 36f 31f
11:42 3 5 mph 1026.2mb 36f 30f
11:36 2 3 mph 1026.2mb 36f 30f
11:30  -  2 mph 1026.3mb 36f 30f
11:24 2 3 mph 1026.3mb 36f 30f
11:18 2 3 mph 1026.4mb 36f 30f
11:12 2 3 mph 1026.4mb 36f 30f
11:06 2 5 mph 1026.4mb 36f 29f
11:00 2 5 mph 1026.4mb 36f 29f
10:54 3 6 mph 1026.5mb 36f 29f
10:48 3 6 mph 1026.4mb 36f 29f
10:42 2 5 mph 1026.5mb 36f 28f
10:36 3 5 mph 1026.4mb 36f 28f
10:30 2 6 mph 1026.5mb 36f 28f
10:24 2 5 mph 1026.4mb 36f 28f
10:18 3 6 mph 1026.3mb 36f 28f
10:12 2 5 mph 1026.3mb 36f 28f
10:06 3 6 mph 1026.4mb 36f 28f
10:00 3 7 mph 1026.4mb 36f 28f
9:54 2 5 mph 1026.4mb 36f 28f
9:48  -  3 mph 1026.3mb 36f 28f
9:42 2 6 mph 1026.3mb 35f 28f
9:36  -  6 mph 1026.3mb 35f 28f
9:30 2 6 mph 1026.2mb 35f 27f
9:24 3 6 mph 1026.2mb 35f 28f
9:18 2 6 mph 1026.1mb 35f 28f
9:12 5 8 mph 1026.1mb 35f 26f
9:06 6 9 mph 1026.1mb 34f 26f
9:00 6 8 mph 1026.1mb 34f 25f
8:54 7 10 mph 1026.2mb 34f 25f
8:48 2 7 mph 1026.1mb 34f 25f
8:42 3 7 mph 1026.1mb 34f 25f
8:36 6 10 mph 1026.1mb 34f 24f
8:30 5 8 mph 1026.1mb 34f 25f
8:24 6 8 mph 1026.2mb 34f 24f
8:18 7 11 mph 1026.2mb 34f 24f
8:12 6 11 mph 1026.1mb 34f 23f
8:06 8 13 mph 1026mb 34f 22f
8:00 9 11 mph 1025.9mb 34f 22f
7:54 8 11 mph 1025.8mb 34f 22f
7:48 8 11 mph 1025.7mb 34f 22f
7:42 7 9 mph 1025.6mb 34f 22f
7:36 6 11 mph 1025.6mb 34f 22f
7:30 6 9 mph 1025.5mb 34f 22f
7:24 7 11 mph 1025.4mb 34f 22f
7:18 7 10 mph 1025.3mb 34f 22f
7:12 2 10 mph 1025.3mb 34f 22f
7:06 5 9 mph 1025.2mb 34f 22f
7:00 5 9 mph 1025mb 34f 22f
6:54 6 10 mph 1025.2mb 34f 22f
6:48 7 11 mph 1025.2mb 34f 22f
6:42 3 9 mph 1025mb 34f 22f
6:36 6 9 mph 1025.1mb 34f 22f
6:30 7 11 mph 1025.2mb 34f 22f
6:24 5 10 mph 1025.2mb 34f 22f
6:18 5 9 mph 1025.3mb 34f 22f
6:12 7 10 mph 1025.2mb 34f 22f
6:06 7 10 mph 1025.2mb 34f 22f
6:00 6 11 mph 1025mb 34f 22f
5:54 7 11 mph 1025.1mb 34f 22f
5:48 7 9 mph 1025mb 34f -
5:42 8 11 mph 1024.8mb 34f -
5:36 7 11 mph 1024.7mb 34f -
5:30 6 9 mph 1024.7mb 34f 23f
5:24 6 13 mph 1024.7mb 33f 23f
5:18 6 9 mph 1024.6mb 33f 23f
5:12 3 8 mph 1024.7mb 33f 23f
5:06 3 8 mph 1024.5mb 33f 23f
5:00 5 9 mph 1024.5mb 33f 23f
4:54 6 9 mph 1024.5mb 33f 23f
4:48 8 10 mph 1024.5mb 33f 23f
4:42 7 11 mph 1024.4mb 33f 23f
4:36 5 7 mph 1024.4mb 33f 24f
4:30 3 8 mph 1024.2mb 33f 24f
4:24 6 9 mph 1024.2mb 33f 24f
4:18 5 10 mph 1024.1mb 33f 24f
4:12 7 11 mph 1024.2mb 34f 24f
4:06 9 14 mph 1024.1mb 34f 24f
4:00 3 9 mph 1024.1mb 34f 24f
3:54 5 9 mph 1023.9mb 34f 24f
3:48 6 11 mph 1024mb 34f 24f
3:42 8 13 mph 1023.8mb 34f 24f
3:36 5 10 mph 1023.8mb 34f 24f
3:30 7 10 mph 1023.7mb 34f 24f
3:24 6 11 mph 1023.7mb 34f 25f
3:18 6 11 mph 1023.6mb 34f 25f
3:12 6 9 mph 1023.5mb 34f 25f
3:06 7 9 mph 1023.5mb 34f 25f
3:00 6 9 mph 1023.5mb 34f 25f
2:54 7 9 mph 1023.5mb 34f 25f
2:48 5 9 mph 1023.5mb 34f 25f
2:42 7 10 mph 1023.4mb 34f 25f
2:36 6 11 mph 1023.5mb 34f 25f
2:30 8 11 mph 1023.4mb 34f 25f
2:24 5 10 mph 1023.4mb 34f 26f
2:18 5 10 mph 1023.3mb 34f 26f
2:12 7 10 mph 1023.3mb 34f 26f
2:06 6 9 mph 1023.4mb 34f 26f
2:00 5 8 mph 1023.4mb 35f 26f
1:54 7 10 mph 1023.3mb 35f 26f
1:48 6 9 mph 1023.2mb 35f 26f
1:42 6 8 mph 1023.1mb 35f 26f
1:36 5 7 mph 1023.3mb 35f 26f
1:30 5 8 mph 1023.2mb 35f 26f
1:24 6 8 mph 1023mb 35f 26f